sensor_id;sensor_type;location;lat;lon;timestamp;P1;durP1;ratioP1;P2;durP2;ratioP2
57842;SDS011;43673;51.058;3.734;2023-09-30T00:00:42;15.23;;;8.10;;
57842;SDS011;43673;51.058;3.734;2023-09-30T00:03:08;13.82;;;7.95;;
57842;SDS011;43673;51.058;3.734;2023-09-30T00:05:36;13.88;;;9.35;;
57842;SDS011;43673;51.058;3.734;2023-09-30T00:08:02;18.75;;;10.00;;
57842;SDS011;43673;51.058;3.734;2023-09-30T00:10:28;15.13;;;8.45;;
57842;SDS011;43673;51.058;3.734;2023-09-30T00:12:55;16.33;;;9.43;;
57842;SDS011;43673;51.058;3.734;2023-09-30T00:15:21;17.83;;;9.85;;
57842;SDS011;43673;51.058;3.734;2023-09-30T00:17:47;22.42;;;9.75;;
57842;SDS011;43673;51.058;3.734;2023-09-30T00:20:12;12.95;;;8.63;;
57842;SDS011;43673;51.058;3.734;2023-09-30T00:22:40;18.75;;;8.45;;
57842;SDS011;43673;51.058;3.734;2023-09-30T00:25:06;15.30;;;9.32;;
57842;SDS011;43673;51.058;3.734;2023-09-30T00:27:32;21.67;;;10.13;;
57842;SDS011;43673;51.058;3.734;2023-09-30T00:29:58;20.20;;;8.93;;
57842;SDS011;43673;51.058;3.734;2023-09-30T00:32:24;15.25;;;8.45;;
57842;SDS011;43673;51.058;3.734;2023-09-30T00:34:50;20.48;;;9.20;;
57842;SDS011;43673;51.058;3.734;2023-09-30T00:37:17;18.23;;;8.13;;
57842;SDS011;43673;51.058;3.734;2023-09-30T00:39:44;17.15;;;8.75;;
57842;SDS011;43673;51.058;3.734;2023-09-30T00:42:10;15.35;;;9.15;;
57842;SDS011;43673;51.058;3.734;2023-09-30T00:44:36;21.67;;;8.73;;
57842;SDS011;43673;51.058;3.734;2023-09-30T00:47:02;24.35;;;10.23;;
57842;SDS011;43673;51.058;3.734;2023-09-30T00:49:27;21.40;;;9.45;;
57842;SDS011;43673;51.058;3.734;2023-09-30T00:51:54;14.50;;;8.75;;
57842;SDS011;43673;51.058;3.734;2023-09-30T00:54:21;18.02;;;9.18;;
57842;SDS011;43673;51.058;3.734;2023-09-30T00:56:51;30.48;;;9.40;;
57842;SDS011;43673;51.058;3.734;2023-09-30T00:59:20;20.40;;;9.07;;
57842;SDS011;43673;51.058;3.734;2023-09-30T01:01:46;22.38;;;9.65;;
57842;SDS011;43673;51.058;3.734;2023-09-30T01:04:12;20.80;;;8.90;;
57842;SDS011;43673;51.058;3.734;2023-09-30T01:06:39;20.90;;;10.32;;
57842;SDS011;43673;51.058;3.734;2023-09-30T01:09:06;26.60;;;10.15;;
57842;SDS011;43673;51.058;3.734;2023-09-30T01:11:32;22.23;;;9.10;;
57842;SDS011;43673;51.058;3.734;2023-09-30T01:13:58;16.63;;;8.93;;
57842;SDS011;43673;51.058;3.734;2023-09-30T01:16:24;22.20;;;9.40;;
57842;SDS011;43673;51.058;3.734;2023-09-30T01:18:49;14.00;;;8.38;;
57842;SDS011;43673;51.058;3.734;2023-09-30T01:21:18;20.65;;;9.10;;
57842;SDS011;43673;51.058;3.734;2023-09-30T01:23:45;24.80;;;9.13;;
57842;SDS011;43673;51.058;3.734;2023-09-30T01:26:12;14.50;;;9.85;;
57842;SDS011;43673;51.058;3.734;2023-09-30T01:28:38;18.23;;;8.77;;
57842;SDS011;43673;51.058;3.734;2023-09-30T01:31:04;19.30;;;8.80;;
57842;SDS011;43673;51.058;3.734;2023-09-30T01:33:30;21.17;;;9.55;;
57842;SDS011;43673;51.058;3.734;2023-09-30T01:35:57;23.52;;;9.00;;
57842;SDS011;43673;51.058;3.734;2023-09-30T01:38:23;31.98;;;11.52;;
57842;SDS011;43673;51.058;3.734;2023-09-30T01:40:48;22.67;;;9.50;;
57842;SDS011;43673;51.058;3.734;2023-09-30T01:43:14;26.05;;;11.40;;
57842;SDS011;43673;51.058;3.734;2023-09-30T01:45:40;19.95;;;9.20;;
57842;SDS011;43673;51.058;3.734;2023-09-30T01:48:06;22.25;;;9.50;;
57842;SDS011;43673;51.058;3.734;2023-09-30T01:50:32;26.05;;;9.25;;
57842;SDS011;43673;51.058;3.734;2023-09-30T01:52:58;23.52;;;9.55;;
57842;SDS011;43673;51.058;3.734;2023-09-30T01:55:23;24.95;;;11.20;;
57842;SDS011;43673;51.058;3.734;2023-09-30T01:57:49;27.10;;;10.93;;
57842;SDS011;43673;51.058;3.734;2023-09-30T02:00:15;23.15;;;9.30;;
57842;SDS011;43673;51.058;3.734;2023-09-30T02:02:42;23.33;;;9.98;;
57842;SDS011;43673;51.058;3.734;2023-09-30T02:05:09;26.48;;;8.43;;
57842;SDS011;43673;51.058;3.734;2023-09-30T02:07:35;21.95;;;10.10;;
57842;SDS011;43673;51.058;3.734;2023-09-30T02:10:01;19.65;;;10.93;;
57842;SDS011;43673;51.058;3.734;2023-09-30T02:12:27;22.25;;;9.68;;
57842;SDS011;43673;51.058;3.734;2023-09-30T02:14:55;22.98;;;9.93;;
57842;SDS011;43673;51.058;3.734;2023-09-30T02:17:23;28.50;;;10.52;;
57842;SDS011;43673;51.058;3.734;2023-09-30T02:19:49;20.10;;;10.18;;
57842;SDS011;43673;51.058;3.734;2023-09-30T02:22:15;16.25;;;9.27;;
57842;SDS011;43673;51.058;3.734;2023-09-30T02:24:40;23.67;;;9.90;;
57842;SDS011;43673;51.058;3.734;2023-09-30T02:27:06;27.77;;;10.05;;
57842;SDS011;43673;51.058;3.734;2023-09-30T02:29:33;22.42;;;10.00;;
57842;SDS011;43673;51.058;3.734;2023-09-30T02:31:58;18.45;;;8.55;;
57842;SDS011;43673;51.058;3.734;2023-09-30T02:34:24;19.30;;;10.20;;
57842;SDS011;43673;51.058;3.734;2023-09-30T02:36:50;18.00;;;9.60;;
57842;SDS011;43673;51.058;3.734;2023-09-30T02:39:16;22.10;;;9.40;;
57842;SDS011;43673;51.058;3.734;2023-09-30T02:41:43;17.85;;;10.07;;
57842;SDS011;43673;51.058;3.734;2023-09-30T02:44:08;25.77;;;10.98;;
57842;SDS011;43673;51.058;3.734;2023-09-30T02:46:34;19.77;;;9.15;;
57842;SDS011;43673;51.058;3.734;2023-09-30T02:49:03;21.15;;;9.50;;
57842;SDS011;43673;51.058;3.734;2023-09-30T02:51:29;20.88;;;9.75;;
57842;SDS011;43673;51.058;3.734;2023-09-30T02:53:55;19.40;;;9.40;;
57842;SDS011;43673;51.058;3.734;2023-09-30T02:56:21;22.08;;;9.25;;
57842;SDS011;43673;51.058;3.734;2023-09-30T02:58:50;25.85;;;10.07;;
57842;SDS011;43673;51.058;3.734;2023-09-30T03:01:19;21.95;;;9.77;;
57842;SDS011;43673;51.058;3.734;2023-09-30T03:03:45;27.02;;;9.82;;
57842;SDS011;43673;51.058;3.734;2023-09-30T03:06:11;18.73;;;9.25;;
57842;SDS011;43673;51.058;3.734;2023-09-30T03:08:37;22.52;;;10.77;;
57842;SDS011;43673;51.058;3.734;2023-09-30T03:11:03;20.10;;;10.50;;
57842;SDS011;43673;51.058;3.734;2023-09-30T03:13:29;26.60;;;10.98;;
57842;SDS011;43673;51.058;3.734;2023-09-30T03:15:56;19.95;;;10.82;;
57842;SDS011;43673;51.058;3.734;2023-09-30T03:18:26;20.17;;;8.98;;
57842;SDS011;43673;51.058;3.734;2023-09-30T03:20:57;21.92;;;10.18;;
57842;SDS011;43673;51.058;3.734;2023-09-30T03:23:33;28.92;;;10.10;;
57842;SDS011;43673;51.058;3.734;2023-09-30T03:26:00;22.23;;;9.95;;
57842;SDS011;43673;51.058;3.734;2023-09-30T03:28:26;20.27;;;9.25;;
57842;SDS011;43673;51.058;3.734;2023-09-30T03:30:52;23.63;;;9.80;;
57842;SDS011;43673;51.058;3.734;2023-09-30T03:33:18;26.88;;;10.02;;
57842;SDS011;43673;51.058;3.734;2023-09-30T03:35:44;23.40;;;10.32;;
57842;SDS011;43673;51.058;3.734;2023-09-30T03:38:10;28.15;;;9.63;;
57842;SDS011;43673;51.058;3.734;2023-09-30T03:40:38;26.40;;;9.30;;
57842;SDS011;43673;51.058;3.734;2023-09-30T03:43:12;23.00;;;9.50;;
57842;SDS011;43673;51.058;3.734;2023-09-30T03:45:39;25.00;;;8.82;;
57842;SDS011;43673;51.058;3.734;2023-09-30T03:48:06;22.88;;;9.25;;
57842;SDS011;43673;51.058;3.734;2023-09-30T03:50:32;25.05;;;9.85;;
57842;SDS011;43673;51.058;3.734;2023-09-30T03:53:04;25.80;;;10.77;;
57842;SDS011;43673;51.058;3.734;2023-09-30T03:55:32;21.63;;;9.02;;
57842;SDS011;43673;51.058;3.734;2023-09-30T03:57:58;20.15;;;10.00;;
57842;SDS011;43673;51.058;3.734;2023-09-30T04:00:24;30.02;;;11.05;;
57842;SDS011;43673;51.058;3.734;2023-09-30T04:02:50;22.50;;;11.45;;
57842;SDS011;43673;51.058;3.734;2023-09-30T04:05:23;23.70;;;9.63;;
57842;SDS011;43673;51.058;3.734;2023-09-30T04:07:55;24.75;;;11.18;;
57842;SDS011;43673;51.058;3.734;2023-09-30T04:10:21;22.58;;;9.25;;
57842;SDS011;43673;51.058;3.734;2023-09-30T04:12:48;25.55;;;10.98;;
57842;SDS011;43673;51.058;3.734;2023-09-30T04:15:13;38.70;;;11.68;;
57842;SDS011;43673;51.058;3.734;2023-09-30T04:17:40;31.92;;;11.27;;
57842;SDS011;43673;51.058;3.734;2023-09-30T04:20:06;23.88;;;10.85;;
57842;SDS011;43673;51.058;3.734;2023-09-30T04:22:41;18.05;;;9.88;;
57842;SDS011;43673;51.058;3.734;2023-09-30T04:25:07;22.73;;;11.57;;
57842;SDS011;43673;51.058;3.734;2023-09-30T04:27:36;24.08;;;10.55;;
57842;SDS011;43673;51.058;3.734;2023-09-30T04:30:02;25.00;;;10.70;;
57842;SDS011;43673;51.058;3.734;2023-09-30T04:32:34;25.92;;;10.20;;
57842;SDS011;43673;51.058;3.734;2023-09-30T04:35:06;27.25;;;12.15;;
57842;SDS011;43673;51.058;3.734;2023-09-30T04:37:35;25.48;;;11.60;;
57842;SDS011;43673;51.058;3.734;2023-09-30T04:40:05;33.15;;;11.55;;
57842;SDS011;43673;51.058;3.734;2023-09-30T04:42:34;23.15;;;11.63;;
57842;SDS011;43673;51.058;3.734;2023-09-30T04:45:03;21.05;;;9.63;;
57842;SDS011;43673;51.058;3.734;2023-09-30T04:47:32;32.63;;;11.38;;
57842;SDS011;43673;51.058;3.734;2023-09-30T04:49:58;31.92;;;11.60;;
57842;SDS011;43673;51.058;3.734;2023-09-30T04:52:24;28.65;;;11.73;;
57842;SDS011;43673;51.058;3.734;2023-09-30T04:54:53;27.77;;;11.25;;
57842;SDS011;43673;51.058;3.734;2023-09-30T04:57:18;32.33;;;11.38;;
57842;SDS011;43673;51.058;3.734;2023-09-30T04:59:45;26.73;;;11.80;;
57842;SDS011;43673;51.058;3.734;2023-09-30T05:02:12;24.00;;;11.23;;
57842;SDS011;43673;51.058;3.734;2023-09-30T05:04:40;28.23;;;11.00;;
57842;SDS011;43673;51.058;3.734;2023-09-30T05:07:07;31.02;;;12.27;;
57842;SDS011;43673;51.058;3.734;2023-09-30T05:09:33;22.15;;;10.55;;
57842;SDS011;43673;51.058;3.734;2023-09-30T05:11:59;30.23;;;12.13;;
57842;SDS011;43673;51.058;3.734;2023-09-30T05:14:24;31.35;;;11.48;;
57842;SDS011;43673;51.058;3.734;2023-09-30T05:16:50;21.92;;;11.30;;
57842;SDS011;43673;51.058;3.734;2023-09-30T05:19:16;26.92;;;11.48;;
57842;SDS011;43673;51.058;3.734;2023-09-30T05:21:41;29.75;;;11.85;;
57842;SDS011;43673;51.058;3.734;2023-09-30T05:24:09;28.60;;;11.30;;
57842;SDS011;43673;51.058;3.734;2023-09-30T05:26:35;27.40;;;11.43;;
57842;SDS011;43673;51.058;3.734;2023-09-30T05:29:01;28.10;;;11.95;;
57842;SDS011;43673;51.058;3.734;2023-09-30T05:31:28;27.58;;;12.10;;
57842;SDS011;43673;51.058;3.734;2023-09-30T05:33:54;25.48;;;10.15;;
57842;SDS011;43673;51.058;3.734;2023-09-30T05:36:20;24.85;;;12.20;;
57842;SDS011;43673;51.058;3.734;2023-09-30T05:38:46;24.15;;;11.13;;
57842;SDS011;43673;51.058;3.734;2023-09-30T05:41:14;27.60;;;13.20;;
57842;SDS011;43673;51.058;3.734;2023-09-30T05:43:40;25.00;;;12.00;;
57842;SDS011;43673;51.058;3.734;2023-09-30T05:46:08;25.73;;;12.52;;
57842;SDS011;43673;51.058;3.734;2023-09-30T05:48:34;30.98;;;13.18;;
57842;SDS011;43673;51.058;3.734;2023-09-30T05:51:00;25.30;;;11.27;;
57842;SDS011;43673;51.058;3.734;2023-09-30T05:53:26;22.45;;;12.13;;
57842;SDS011;43673;51.058;3.734;2023-09-30T05:55:53;26.38;;;11.68;;
57842;SDS011;43673;51.058;3.734;2023-09-30T05:58:19;33.58;;;13.77;;
57842;SDS011;43673;51.058;3.734;2023-09-30T06:00:45;27.52;;;11.35;;
57842;SDS011;43673;51.058;3.734;2023-09-30T06:03:11;35.45;;;13.15;;
57842;SDS011;43673;51.058;3.734;2023-09-30T06:05:40;25.42;;;12.88;;
57842;SDS011;43673;51.058;3.734;2023-09-30T06:08:07;23.25;;;10.90;;
57842;SDS011;43673;51.058;3.734;2023-09-30T06:10:36;22.73;;;12.07;;
57842;SDS011;43673;51.058;3.734;2023-09-30T06:13:07;27.23;;;10.98;;
57842;SDS011;43673;51.058;3.734;2023-09-30T06:15:34;29.40;;;11.57;;
57842;SDS011;43673;51.058;3.734;2023-09-30T06:18:06;30.42;;;11.07;;
57842;SDS011;43673;51.058;3.734;2023-09-30T06:20:31;26.38;;;12.90;;
57842;SDS011;43673;51.058;3.734;2023-09-30T06:22:58;29.95;;;11.00;;
57842;SDS011;43673;51.058;3.734;2023-09-30T06:25:25;23.83;;;10.85;;
57842;SDS011;43673;51.058;3.734;2023-09-30T06:27:52;29.63;;;10.40;;
57842;SDS011;43673;51.058;3.734;2023-09-30T06:30:21;23.85;;;11.13;;
57842;SDS011;43673;51.058;3.734;2023-09-30T06:32:55;24.63;;;11.13;;
57842;SDS011;43673;51.058;3.734;2023-09-30T06:35:22;20.55;;;10.73;;
57842;SDS011;43673;51.058;3.734;2023-09-30T06:37:48;21.92;;;8.93;;
57842;SDS011;43673;51.058;3.734;2023-09-30T06:40:14;34.28;;;11.30;;
57842;SDS011;43673;51.058;3.734;2023-09-30T06:42:39;22.80;;;10.73;;
57842;SDS011;43673;51.058;3.734;2023-09-30T06:45:06;21.48;;;9.55;;
57842;SDS011;43673;51.058;3.734;2023-09-30T06:47:33;21.73;;;9.32;;
57842;SDS011;43673;51.058;3.734;2023-09-30T06:50:03;22.42;;;9.52;;
57842;SDS011;43673;51.058;3.734;2023-09-30T06:52:39;20.60;;;8.88;;
57842;SDS011;43673;51.058;3.734;2023-09-30T06:55:07;18.20;;;8.35;;
57842;SDS011;43673;51.058;3.734;2023-09-30T06:57:34;20.75;;;9.25;;
57842;SDS011;43673;51.058;3.734;2023-09-30T07:00:01;21.25;;;8.70;;
57842;SDS011;43673;51.058;3.734;2023-09-30T07:02:34;27.65;;;9.40;;
57842;SDS011;43673;51.058;3.734;2023-09-30T07:04:59;26.45;;;9.65;;
57842;SDS011;43673;51.058;3.734;2023-09-30T07:07:25;18.08;;;8.60;;
57842;SDS011;43673;51.058;3.734;2023-09-30T07:09:51;23.88;;;9.35;;
57842;SDS011;43673;51.058;3.734;2023-09-30T07:12:16;26.23;;;14.25;;
57842;SDS011;43673;51.058;3.734;2023-09-30T07:14:42;20.92;;;10.77;;
57842;SDS011;43673;51.058;3.734;2023-09-30T07:17:08;18.42;;;8.32;;
57842;SDS011;43673;51.058;3.734;2023-09-30T07:19:33;25.02;;;9.27;;
57842;SDS011;43673;51.058;3.734;2023-09-30T07:21:59;16.08;;;8.35;;
57842;SDS011;43673;51.058;3.734;2023-09-30T07:24:25;16.98;;;8.43;;
57842;SDS011;43673;51.058;3.734;2023-09-30T07:26:50;19.38;;;7.60;;
57842;SDS011;43673;51.058;3.734;2023-09-30T07:29:16;20.42;;;8.18;;
57842;SDS011;43673;51.058;3.734;2023-09-30T07:31:42;16.67;;;7.10;;
57842;SDS011;43673;51.058;3.734;2023-09-30T07:34:07;20.50;;;6.90;;
57842;SDS011;43673;51.058;3.734;2023-09-30T07:36:33;20.92;;;8.05;;
57842;SDS011;43673;51.058;3.734;2023-09-30T07:38:59;11.88;;;6.07;;
57842;SDS011;43673;51.058;3.734;2023-09-30T07:41:26;15.65;;;7.93;;
57842;SDS011;43673;51.058;3.734;2023-09-30T07:43:52;20.27;;;7.57;;
57842;SDS011;43673;51.058;3.734;2023-09-30T07:46:18;16.85;;;6.45;;
57842;SDS011;43673;51.058;3.734;2023-09-30T07:48:43;16.20;;;7.72;;
57842;SDS011;43673;51.058;3.734;2023-09-30T07:51:09;17.75;;;8.00;;
57842;SDS011;43673;51.058;3.734;2023-09-30T07:53:38;18.55;;;6.80;;
57842;SDS011;43673;51.058;3.734;2023-09-30T07:56:05;29.48;;;8.68;;
57842;SDS011;43673;51.058;3.734;2023-09-30T07:58:31;20.67;;;8.40;;
57842;SDS011;43673;51.058;3.734;2023-09-30T08:00:58;23.67;;;8.52;;
57842;SDS011;43673;51.058;3.734;2023-09-30T08:03:23;17.90;;;7.38;;
57842;SDS011;43673;51.058;3.734;2023-09-30T08:05:49;17.60;;;8.65;;
57842;SDS011;43673;51.058;3.734;2023-09-30T08:08:15;19.65;;;7.32;;
57842;SDS011;43673;51.058;3.734;2023-09-30T08:10:42;21.65;;;9.82;;
57842;SDS011;43673;51.058;3.734;2023-09-30T08:13:08;23.70;;;8.40;;
57842;SDS011;43673;51.058;3.734;2023-09-30T08:15:34;24.70;;;9.70;;
57842;SDS011;43673;51.058;3.734;2023-09-30T08:18:00;20.00;;;10.20;;
57842;SDS011;43673;51.058;3.734;2023-09-30T08:20:29;30.95;;;10.60;;
57842;SDS011;43673;51.058;3.734;2023-09-30T08:22:55;33.63;;;12.23;;
57842;SDS011;43673;51.058;3.734;2023-09-30T08:25:21;25.92;;;10.68;;
57842;SDS011;43673;51.058;3.734;2023-09-30T08:27:47;19.88;;;10.13;;
57842;SDS011;43673;51.058;3.734;2023-09-30T08:30:14;27.75;;;10.02;;
57842;SDS011;43673;51.058;3.734;2023-09-30T08:32:41;21.90;;;10.82;;
57842;SDS011;43673;51.058;3.734;2023-09-30T08:35:06;23.13;;;9.43;;
57842;SDS011;43673;51.058;3.734;2023-09-30T08:37:33;16.45;;;8.95;;
57842;SDS011;43673;51.058;3.734;2023-09-30T08:39:58;24.70;;;9.93;;
57842;SDS011;43673;51.058;3.734;2023-09-30T08:42:24;30.58;;;10.93;;
57842;SDS011;43673;51.058;3.734;2023-09-30T08:44:57;23.77;;;8.85;;
57842;SDS011;43673;51.058;3.734;2023-09-30T08:47:25;19.20;;;9.43;;
57842;SDS011;43673;51.058;3.734;2023-09-30T08:49:53;24.15;;;10.35;;
57842;SDS011;43673;51.058;3.734;2023-09-30T08:52:22;20.23;;;9.80;;
57842;SDS011;43673;51.058;3.734;2023-09-30T08:54:54;23.70;;;9.98;;
57842;SDS011;43673;51.058;3.734;2023-09-30T08:57:19;21.15;;;11.30;;
57842;SDS011;43673;51.058;3.734;2023-09-30T08:59:45;19.52;;;8.90;;
57842;SDS011;43673;51.058;3.734;2023-09-30T09:02:14;24.33;;;9.80;;
57842;SDS011;43673;51.058;3.734;2023-09-30T09:04:39;22.00;;;9.77;;
57842;SDS011;43673;51.058;3.734;2023-09-30T09:07:05;20.55;;;10.05;;
57842;SDS011;43673;51.058;3.734;2023-09-30T09:09:31;18.88;;;10.25;;
57842;SDS011;43673;51.058;3.734;2023-09-30T09:12:00;18.20;;;10.43;;
57842;SDS011;43673;51.058;3.734;2023-09-30T09:14:38;21.65;;;10.60;;
57842;SDS011;43673;51.058;3.734;2023-09-30T09:17:10;22.30;;;11.80;;
57842;SDS011;43673;51.058;3.734;2023-09-30T09:19:36;19.30;;;10.25;;
57842;SDS011;43673;51.058;3.734;2023-09-30T09:22:03;21.27;;;11.27;;
57842;SDS011;43673;51.058;3.734;2023-09-30T09:24:32;22.67;;;10.45;;
57842;SDS011;43673;51.058;3.734;2023-09-30T09:27:06;19.90;;;11.88;;
57842;SDS011;43673;51.058;3.734;2023-09-30T09:29:33;21.75;;;11.88;;
57842;SDS011;43673;51.058;3.734;2023-09-30T09:32:13;21.20;;;11.82;;
57842;SDS011;43673;51.058;3.734;2023-09-30T09:34:43;21.77;;;11.38;;
57842;SDS011;43673;51.058;3.734;2023-09-30T09:37:16;22.70;;;11.35;;
57842;SDS011;43673;51.058;3.734;2023-09-30T09:39:50;20.95;;;11.38;;
57842;SDS011;43673;51.058;3.734;2023-09-30T09:42:24;25.90;;;11.80;;
57842;SDS011;43673;51.058;3.734;2023-09-30T09:45:00;19.67;;;8.95;;
57842;SDS011;43673;51.058;3.734;2023-09-30T09:47:33;20.25;;;9.13;;
57842;SDS011;43673;51.058;3.734;2023-09-30T09:50:02;22.17;;;9.38;;
57842;SDS011;43673;51.058;3.734;2023-09-30T09:52:29;22.88;;;10.00;;
57842;SDS011;43673;51.058;3.734;2023-09-30T09:54:56;18.20;;;8.60;;
57842;SDS011;43673;51.058;3.734;2023-09-30T09:57:23;23.05;;;7.72;;
57842;SDS011;43673;51.058;3.734;2023-09-30T09:59:51;25.55;;;8.77;;
57842;SDS011;43673;51.058;3.734;2023-09-30T10:02:18;19.27;;;8.00;;
57842;SDS011;43673;51.058;3.734;2023-09-30T10:04:45;18.88;;;7.72;;
57842;SDS011;43673;51.058;3.734;2023-09-30T10:07:13;18.58;;;7.63;;
57842;SDS011;43673;51.058;3.734;2023-09-30T10:09:46;19.52;;;7.85;;
57842;SDS011;43673;51.058;3.734;2023-09-30T10:12:16;20.42;;;7.88;;
57842;SDS011;43673;51.058;3.734;2023-09-30T10:14:43;16.90;;;7.57;;
57842;SDS011;43673;51.058;3.734;2023-09-30T10:17:09;18.10;;;7.03;;
57842;SDS011;43673;51.058;3.734;2023-09-30T10:19:35;20.40;;;6.68;;
57842;SDS011;43673;51.058;3.734;2023-09-30T10:24:43;14.63;;;6.57;;
57842;SDS011;43673;51.058;3.734;2023-09-30T10:29:47;18.85;;;6.85;;
57842;SDS011;43673;51.058;3.734;2023-09-30T10:32:14;13.70;;;6.82;;
57842;SDS011;43673;51.058;3.734;2023-09-30T10:34:49;14.35;;;6.28;;
57842;SDS011;43673;51.058;3.734;2023-09-30T10:37:23;17.95;;;6.88;;
57842;SDS011;43673;51.058;3.734;2023-09-30T10:42:43;14.50;;;6.53;;
57842;SDS011;43673;51.058;3.734;2023-09-30T10:45:35;14.75;;;7.50;;
57842;SDS011;43673;51.058;3.734;2023-09-30T10:51:12;14.52;;;5.15;;
57842;SDS011;43673;51.058;3.734;2023-09-30T10:53:49;12.77;;;6.47;;
57842;SDS011;43673;51.058;3.734;2023-09-30T10:56:26;14.55;;;5.50;;
57842;SDS011;43673;51.058;3.734;2023-09-30T10:58:59;13.35;;;5.40;;
57842;SDS011;43673;51.058;3.734;2023-09-30T11:01:31;9.60;;;4.70;;
57842;SDS011;43673;51.058;3.734;2023-09-30T11:03:59;18.48;;;6.07;;
57842;SDS011;43673;51.058;3.734;2023-09-30T11:06:31;14.63;;;6.40;;
57842;SDS011;43673;51.058;3.734;2023-09-30T11:08:57;16.23;;;5.80;;
57842;SDS011;43673;51.058;3.734;2023-09-30T11:11:34;12.23;;;5.03;;
57842;SDS011;43673;51.058;3.734;2023-09-30T11:14:23;14.95;;;4.97;;
57842;SDS011;43673;51.058;3.734;2023-09-30T11:16:51;12.98;;;4.85;;
57842;SDS011;43673;51.058;3.734;2023-09-30T11:19:18;10.55;;;6.38;;
57842;SDS011;43673;51.058;3.734;2023-09-30T11:21:51;10.48;;;5.47;;
57842;SDS011;43673;51.058;3.734;2023-09-30T11:24:18;15.77;;;5.13;;
57842;SDS011;43673;51.058;3.734;2023-09-30T11:26:44;11.85;;;5.13;;
57842;SDS011;43673;51.058;3.734;2023-09-30T11:29:14;11.20;;;5.70;;
57842;SDS011;43673;51.058;3.734;2023-09-30T11:31:44;13.45;;;6.32;;
57842;SDS011;43673;51.058;3.734;2023-09-30T11:34:12;10.10;;;5.35;;
57842;SDS011;43673;51.058;3.734;2023-09-30T11:36:39;12.10;;;6.45;;
57842;SDS011;43673;51.058;3.734;2023-09-30T11:39:09;9.35;;;5.10;;
57842;SDS011;43673;51.058;3.734;2023-09-30T11:41:46;9.23;;;4.85;;
57842;SDS011;43673;51.058;3.734;2023-09-30T11:44:11;12.05;;;4.47;;
57842;SDS011;43673;51.058;3.734;2023-09-30T11:46:49;10.15;;;4.38;;
57842;SDS011;43673;51.058;3.734;2023-09-30T11:49:24;16.33;;;5.43;;
57842;SDS011;43673;51.058;3.734;2023-09-30T11:51:49;15.43;;;5.63;;
57842;SDS011;43673;51.058;3.734;2023-09-30T11:54:16;12.20;;;5.20;;
57842;SDS011;43673;51.058;3.734;2023-09-30T11:56:42;17.30;;;6.15;;
57842;SDS011;43673;51.058;3.734;2023-09-30T11:59:07;12.30;;;5.22;;
57842;SDS011;43673;51.058;3.734;2023-09-30T12:01:36;10.80;;;5.18;;
57842;SDS011;43673;51.058;3.734;2023-09-30T12:04:03;10.82;;;4.75;;
57842;SDS011;43673;51.058;3.734;2023-09-30T12:06:29;11.70;;;5.00;;
57842;SDS011;43673;51.058;3.734;2023-09-30T12:08:55;11.80;;;4.75;;
57842;SDS011;43673;51.058;3.734;2023-09-30T12:11:21;13.50;;;4.47;;
57842;SDS011;43673;51.058;3.734;2023-09-30T12:13:49;16.35;;;5.32;;
57842;SDS011;43673;51.058;3.734;2023-09-30T12:16:15;11.52;;;5.05;;
57842;SDS011;43673;51.058;3.734;2023-09-30T12:18:42;11.23;;;4.70;;
57842;SDS011;43673;51.058;3.734;2023-09-30T12:21:12;9.75;;;4.18;;
57842;SDS011;43673;51.058;3.734;2023-09-30T12:23:45;9.05;;;3.60;;
57842;SDS011;43673;51.058;3.734;2023-09-30T12:26:13;11.55;;;4.20;;
57842;SDS011;43673;51.058;3.734;2023-09-30T12:28:39;8.35;;;4.03;;
57842;SDS011;43673;51.058;3.734;2023-09-30T12:31:09;9.38;;;4.28;;
57842;SDS011;43673;51.058;3.734;2023-09-30T12:33:35;10.68;;;4.10;;
57842;SDS011;43673;51.058;3.734;2023-09-30T12:36:01;8.50;;;4.05;;
57842;SDS011;43673;51.058;3.734;2023-09-30T12:38:27;13.10;;;4.40;;
57842;SDS011;43673;51.058;3.734;2023-09-30T12:40:54;6.70;;;3.25;;
57842;SDS011;43673;51.058;3.734;2023-09-30T12:43:20;12.65;;;3.60;;
57842;SDS011;43673;51.058;3.734;2023-09-30T12:45:46;14.02;;;4.15;;
57842;SDS011;43673;51.058;3.734;2023-09-30T12:48:12;12.25;;;4.95;;
57842;SDS011;43673;51.058;3.734;2023-09-30T12:50:39;15.02;;;4.38;;
57842;SDS011;43673;51.058;3.734;2023-09-30T12:53:06;11.00;;;4.35;;
57842;SDS011;43673;51.058;3.734;2023-09-30T12:55:32;8.73;;;3.88;;
57842;SDS011;43673;51.058;3.734;2023-09-30T12:57:58;9.75;;;4.03;;
57842;SDS011;43673;51.058;3.734;2023-09-30T13:00:25;15.38;;;4.53;;
57842;SDS011;43673;51.058;3.734;2023-09-30T13:02:51;7.60;;;3.92;;
57842;SDS011;43673;51.058;3.734;2023-09-30T13:05:18;9.80;;;3.17;;
57842;SDS011;43673;51.058;3.734;2023-09-30T13:07:45;10.32;;;4.93;;
57842;SDS011;43673;51.058;3.734;2023-09-30T13:10:11;6.60;;;3.47;;
57842;SDS011;43673;51.058;3.734;2023-09-30T13:12:38;14.32;;;4.25;;
57842;SDS011;43673;51.058;3.734;2023-09-30T13:15:04;10.43;;;4.68;;
57842;SDS011;43673;51.058;3.734;2023-09-30T13:17:30;7.68;;;3.42;;
57842;SDS011;43673;51.058;3.734;2023-09-30T13:19:58;10.68;;;3.85;;
57842;SDS011;43673;51.058;3.734;2023-09-30T13:22:23;13.43;;;5.18;;
57842;SDS011;43673;51.058;3.734;2023-09-30T13:24:49;11.95;;;4.25;;
57842;SDS011;43673;51.058;3.734;2023-09-30T13:27:16;9.02;;;3.92;;
57842;SDS011;43673;51.058;3.734;2023-09-30T13:29:42;12.48;;;3.80;;
57842;SDS011;43673;51.058;3.734;2023-09-30T13:32:11;9.13;;;4.15;;
57842;SDS011;43673;51.058;3.734;2023-09-30T13:34:37;8.95;;;4.00;;
57842;SDS011;43673;51.058;3.734;2023-09-30T13:37:03;8.65;;;3.30;;
57842;SDS011;43673;51.058;3.734;2023-09-30T13:39:29;11.95;;;4.03;;
57842;SDS011;43673;51.058;3.734;2023-09-30T13:41:56;7.50;;;3.38;;
57842;SDS011;43673;51.058;3.734;2023-09-30T13:44:22;12.27;;;3.90;;
57842;SDS011;43673;51.058;3.734;2023-09-30T13:46:48;9.73;;;3.03;;
57842;SDS011;43673;51.058;3.734;2023-09-30T13:49:13;10.70;;;3.30;;
57842;SDS011;43673;51.058;3.734;2023-09-30T13:51:39;10.20;;;4.10;;
57842;SDS011;43673;51.058;3.734;2023-09-30T13:54:05;10.05;;;4.22;;
57842;SDS011;43673;51.058;3.734;2023-09-30T13:56:34;14.15;;;3.35;;
57842;SDS011;43673;51.058;3.734;2023-09-30T13:58:59;6.43;;;2.88;;
57842;SDS011;43673;51.058;3.734;2023-09-30T14:01:25;11.18;;;4.10;;
57842;SDS011;43673;51.058;3.734;2023-09-30T14:03:52;7.82;;;3.00;;
57842;SDS011;43673;51.058;3.734;2023-09-30T14:08:47;11.05;;;5.13;;
57842;SDS011;43673;51.058;3.734;2023-09-30T14:11:13;8.60;;;3.40;;
57842;SDS011;43673;51.058;3.734;2023-09-30T14:13:39;10.10;;;4.32;;
57842;SDS011;43673;51.058;3.734;2023-09-30T14:16:05;6.32;;;2.95;;
57842;SDS011;43673;51.058;3.734;2023-09-30T14:18:32;9.02;;;4.35;;
57842;SDS011;43673;51.058;3.734;2023-09-30T14:20:58;10.88;;;4.00;;
57842;SDS011;43673;51.058;3.734;2023-09-30T14:23:26;7.72;;;3.20;;
57842;SDS011;43673;51.058;3.734;2023-09-30T14:25:55;11.80;;;4.07;;
57842;SDS011;43673;51.058;3.734;2023-09-30T14:28:21;10.25;;;4.40;;
57842;SDS011;43673;51.058;3.734;2023-09-30T14:30:47;10.77;;;3.80;;
57842;SDS011;43673;51.058;3.734;2023-09-30T14:33:15;6.95;;;3.60;;
57842;SDS011;43673;51.058;3.734;2023-09-30T14:35:41;10.18;;;3.42;;
57842;SDS011;43673;51.058;3.734;2023-09-30T14:38:11;10.73;;;3.40;;
57842;SDS011;43673;51.058;3.734;2023-09-30T14:40:37;10.70;;;3.83;;
57842;SDS011;43673;51.058;3.734;2023-09-30T14:45:39;6.03;;;3.08;;
57842;SDS011;43673;51.058;3.734;2023-09-30T14:48:08;8.45;;;3.40;;